Hauptseite
METAR-TAF:

METAR-TAF

Flughäfen :

Militärflugplatz Volkel

Uden, Niederlande

Breite: 51-39N, Länge: 005-42E, Höhe: 22 m

Beobachtung

Neuester Wetterbericht von vor 34 Minuten, um 15:25 UTC
Wind 5 kt aus Nordost, variierte zwischen Nord/Nordost und Ost
Temperatur 26°C
Luftfeuchtigkeit 42%
Luftdruck 1024 hPa
Sichtweite 10 km oder mehr
Geschlossene Wolkendecke in der Höhe von 31000 ft

METAR: EHVK 231525Z AUTO 04005KT 020V100 9999 OVC310 26/12 Q1024 BLU

Zeit: 17:59 (15:59 UTC)

Prognose

Neuester Wetterbericht von vor 3 Stunden und 40 Minuten, um 12:19 UTC
Gültige Prognose vom 23 um 13 UTC bis 24 um 01 UTC
Wind 3 kt aus unterschiedlichen Richtungen
Sichtweite 10 km oder mehr
keine Wolken unter 1500 m und keine Kumulonimbus oder Gewitterwolken
Übergehend zu
vom 23 um 16 UTC bis 23 um 19 UTC
Wind 5 kt aus Ost/Nordost

TAF: EHVK 231219Z 2313/2401 VRB03KT CAVOK BECMG 2316/2319 06005KT

Wetterbeobachtungen und Prognosen von mehr als 4000 Flughäfen (METAR und TAF Bericht).

Die verfügbaren Stationen werden durch gelbe und rote Markierungen auf der Karte dargestellt.

Führen Sie die Maus auf sie, um den Namen der Station zu sehen.

Darauf klicken, um die Beobachtung von Wetterbeobachtungen und Prognosen zu sehen.

Um die Karte zu ändern : klicken Sie auf den grünen Tasten mit einem schwarzen Kreuz Zum Vergrößern, auf den grünen Button mit einem Gedankenstrich zu verkleinern, oder auf die grünen Pfeile für benachbarte Karten.


METAR-TAF: